Flight Track Log - Related Links

Times and Time Zones

All times are in EDT time to prevent confusion due to time zone crossing. See the DAL5173 flight status page for this flight to view local times or setup timezone preferences in your user account.

Time Position Orientation Groundspeed Altitude Reporting Facility
EDT Latitude Longitude Course Direction KTS MPH feet Rate Location/Type
Sun 07:39:37 AM 42.2017 -83.3553 189° South 147 169 1,300  Level Cleveland Center
Sun 07:40:20 AM 42.1681 -83.3622 189° South 206 237 2,300 1,788 Climbing Cleveland Center
Sun 07:41:21 AM 42.0969 -83.3733 187° South 265 305 4,400 2,557 Climbing Cleveland Center
Sun 07:42:22 AM 42.0550 -83.2958 126° Southeast 290 334 7,500 2,489 Climbing Cleveland Center
Sun 07:43:36 AM 42.0581 -83.1700 88° East 301 346 10,000 1,836 Climbing Cleveland Center
Sun 07:44:36 AM 42.0631 -83.0361 87° East 330 380 11,600 1,950 Climbing Cleveland Center
Sun 07:45:36 AM 42.0700 -82.9019 86° East 350 403 13,900 2,050 Climbing Cleveland Center
Sun 07:46:36 AM 42.0769 -82.7597 86° East 361 415 15,700 1,600 Climbing Cleveland Center
Sun 07:47:36 AM 42.0817 -82.6172 87° East 374 430 17,100 1,500 Climbing Cleveland Center
Sun 07:48:36 AM 42.0819 -82.4689 90° East 387 445 18,700 1,650 Climbing Cleveland Center
Sun 07:49:36 AM 42.0636 -82.3172 99° East 392 451 20,400 1,500 Climbing Cleveland Center
Sun 07:50:36 AM 42.0408 -82.1656 101° East 402 463 21,700 1,400 Climbing Cleveland Center
Sun 07:51:36 AM 41.9758 -82.0244 122° Southeast 408 470 23,200 1,200 Climbing Cleveland Center
Sun 07:52:36 AM 41.8978 -81.9472 144° Southeast 393 452 24,100 1,100 Climbing Cleveland Center
Sun 07:53:36 AM 41.8050 -81.8561 144° Southeast 405 466 25,400 1,300 Climbing Cleveland Center
Sun 07:54:36 AM 41.7100 -81.7681 145° Southeast 420 483 26,700 1,100 Climbing Cleveland Center
Sun 07:55:36 AM 41.6106 -81.6967 152° Southeast 407 468 27,600 800 Climbing Cleveland Center
Sun 07:56:36 AM 41.5069 -81.6311 155° Southeast 407 468 28,300 800 Climbing Cleveland Center
Sun 07:57:36 AM 41.3931 -81.5575 154° Southeast 407 468 29,200 750 Climbing Cleveland Center
Sun 07:58:36 AM 41.2850 -81.4950 157° South 412 474 29,800 550 Climbing Cleveland Center
Sun 07:59:36 AM 41.1772 -81.4244 154° Southeast 425 489 30,300 500 Climbing Cleveland Center
Sun 08:00:36 AM 41.0608 -81.3597 157° South 446 513 30,800 500 Climbing Cleveland Center
Sun 08:01:36 AM 40.9614 -81.3008 156° South 441 507 31,300 600 Climbing Cleveland Center
Sun 08:02:36 AM 40.8511 -81.2336 155° Southeast 436 502 32,000 750 Climbing Cleveland Center
Sun 08:03:36 AM 40.7431 -81.1667 155° Southeast 436 502 32,800 800 Climbing Cleveland Center
Sun 08:04:36 AM 40.6308 -81.1031 157° South 436 502 33,600 850 Climbing Cleveland Center
Sun 08:05:36 AM 40.5167 -81.0311 154° Southeast 431 496 34,500 750 Climbing Cleveland Center
Sun 08:06:36 AM 40.4083 -80.9647 155° Southeast 431 496 35,100 750 Climbing Cleveland Center
Sun 08:07:36 AM 40.3022 -80.8989 155° Southeast 426 490 36,000 900 Climbing Cleveland Center
Sun 08:08:36 AM 40.1942 -80.8386 157° South 426 490 36,900 500 Climbing Cleveland Center
Sun 08:09:36 AM 40.0900 -80.7758 155° Southeast 421 484 37,000 50 Climbing Cleveland Center
Sun 08:10:36 AM 39.9817 -80.7131 156° South 421 484 37,000  Level Cleveland Center
Sun 08:11:36 AM 39.8692 -80.6481 156° South 427 491 37,000  Level Cleveland Center
Sun 08:12:36 AM 39.7586 -80.5858 157° South 432 497 37,000  Level Cleveland Center
Sun 08:13:36 AM 39.6503 -80.5211 155° Southeast 432 497 37,000  Level Cleveland Center
Sun 08:14:36 AM 39.5397 -80.4567 156° South 437 503 37,000  Level Cleveland Center
Sun 08:16:14 AM 39.3633 -80.3539 156° South 435 501 37,000  Level Washington Center
Sun 08:17:13 AM 39.2489 -80.2903 157° South 435 501 37,000  Level Washington Center
Sun 08:18:13 AM 39.1347 -80.2239 156° South 435 501 37,000 -403 Level Washington Center
Sun 08:19:12 AM 39.0206 -80.1578 156° South 443 510 36,200 -908 Descending Washington Center
Sun 08:20:12 AM 38.9161 -80.1061 159° South 449 517 35,200 -1,000 Descending Washington Center
Sun 08:21:12 AM 38.7975 -80.0481 159° South 449 517 34,200 -934 Descending Washington Center
Sun 08:22:14 AM 38.6767 -79.9875 159° South 456 525 33,300 -1,033 Descending Washington Center
Sun 08:23:14 AM 38.5436 -79.9211 159° South 468 539 32,100 -1,109 Descending Washington Center
Sun 08:24:13 AM 38.4206 -79.8611 159° South 468 539 31,100 -966 Descending Washington Center
Sun 08:25:12 AM 38.3017 -79.8014 158° South 468 539 30,200 -1,050 Descending Washington Center
Sun 08:26:13 AM 38.1789 -79.7389 158° South 461 531 29,000 -1,328 Descending Washington Center
Sun 08:27:14 AM 38.0700 -79.6853 159° South 466 536 27,500 -1,488 Descending Washington Center
Sun 08:28:14 AM 37.9469 -79.6261 159° South 466 536 26,000 -763 Descending Washington Center
Sun 08:29:12 AM 37.8281 -79.5669 159° South 466 536 26,000 -202 Level Washington Center
Sun 08:30:13 AM 37.6906 -79.4969 158° South 466 536 25,600 -639 Descending Washington Center
Sun 08:31:14 AM 37.5817 -79.4467 160° South 466 536 24,700 -807 Descending Washington Center
Sun 08:32:12 AM 37.4603 -79.3883 159° South 466 536 24,000 -407 Descending Washington Center
Sun 08:33:12 AM 37.3372 -79.3272 158° South 466 536 23,900 -639 Descending Washington Center
Sun 08:34:14 AM 37.2117 -79.2689 160° South 455 524 22,700 -1,082 Descending Washington Center
Sun 08:35:14 AM 37.0944 -79.2114 159° South 450 518 21,700 -966 Descending Washington Center
Sun 08:36:12 AM 36.9814 -79.1592 160° South 445 512 20,800 -756 Descending Washington Center
Sun 08:37:13 AM 36.8681 -79.1072 160° South 439 505 20,200 -1,140 Descending Washington Center
Sun 08:38:13 AM 36.7714 -79.0614 159° South 434 499 18,500 -1,916 Descending Washington Center
Sun 08:39:12 AM 36.6622 -79.0125 160° South 427 491 16,400 -2,050 Descending Washington Center
Sun 08:40:13 AM 36.5589 -78.9819 167° South 407 468 14,400 -2,021 Descending Washington Center
Sun 08:40:47 AM 36.5031 -78.9642 166° South 392 451 13,200 -2,177 Descending Washington Center
Sun 08:42:06 AM 36.3689 -78.9119 163° South 354 407 10,300 -1,779 Descending Washington Center
Sun 08:43:12 AM 36.2969 -78.8700 155° Southeast 288 331 8,900 -1,512 Descending Washington Center
Sun 08:44:13 AM 36.2247 -78.8361 159° South 266 306 7,100 -1,774 Descending Washington Center
Sun 08:45:07 AM 36.1547 -78.8025 159° South 266 306 5,500 -1,774 Descending Washington Center
Sun 08:46:08 AM 36.1022 -78.7361 134° Southeast 270 311 3,700 -1,240 Descending Washington Center
Sun 08:47:08 AM 36.0583 -78.6650 127° Southeast 264 304 3,000 -744 Descending Washington Center
Sun 08:48:09 AM 35.9981 -78.6550 172° South 239 275 2,200 -500 Descending Washington Center
Sun 08:49:08 AM 35.9550 -78.7044 223° Southwest 213 245 2,000 -414 Descending Washington Center
Sun 08:50:05 AM 35.9247 -78.7444 227° Southwest 145 167 1,400 -626 Descending Washington Center
Sun 08:51:03 AM 35.8989 -78.7742 223° Southwest 120 138 800 -621 Descending Washington Center
Sun 08:53:00 AM 35.8776 -78.7875 90° East  Level Estimated
Sun 09:00:00 AM 35.8776 -78.7875 90° East  Level Estimated
Sun 09:01:00 AM 35.8776 -78.7875 90° East  Level Estimated
Sun 09:02:00 AM 35.8776 -78.7875 90° East  Level Estimated
Sun 09:03:00 AM 35.8776 -78.7875 90° East  Level Estimated
Sun 09:04:00 AM 35.8776 -78.7875 90° East  Level Estimated
Sun 09:05:00 AM 35.8776 -78.7875 90° East  Level Estimated
Sun 09:06:00 AM 35.8776 -78.7875 90° East  Level Estimated
Sun 09:07:00 AM 35.8776 -78.7875 90° East  Level Estimated

Login

Don't have an account? Register now (free) for customized features, flight alerts, and more!